Time;durP1;ratioP1;P1;durP2;ratioP2;P2;SDS_P1;SDS_P2;PMS_P1;PMS_P2;Temp;Humidity;BMP_temperature;BMP_pressure;BME280_temperature;BME280_humidity;BME280_pressure;Samples;Min_cycle;Max_cycle;Signal;HPM_P1;HPM_P2
2022/06/19 00:01:26;;;;;;;;;17.33;13.33;;;;;29.81;41.86;100430.84;5059868;28;45418;-58
2022/06/19 00:03:54;;;;;;;;;14.33;12.67;;;;;29.56;41.50;100451.75;5064026;28;45363;-60
2022/06/19 00:06:20;;;;;;;;;13.00;13.00;;;;;29.44;42.56;100446.00;5052541;28;45327;-59
2022/06/19 00:08:48;;;;;;;;;13.33;12.00;;;;;29.35;41.93;100445.41;5058703;27;61004;-59
2022/06/19 00:11:15;;;;;;;;;12.00;10.00;;;;;29.28;41.98;100510.25;5062318;28;45479;-59
2022/06/19 00:13:40;;;;;;;;;9.67;9.67;;;;;29.14;41.34;100480.09;5059332;28;45471;-59
2022/06/19 00:16:06;;;;;;;;;15.67;9.67;;;;;28.99;41.46;100515.00;5057523;28;45264;-58
2022/06/19 00:18:31;;;;;;;;;11.00;9.67;;;;;28.89;41.55;100540.03;5061768;27;45447;-59
2022/06/19 00:20:57;;;;;;;;;9.33;8.67;;;;;28.69;42.16;100518.88;5060853;28;45513;-58
2022/06/19 00:23:22;;;;;;;;;9.00;8.67;;;;;28.52;41.57;100520.22;5050839;28;65552;-58
2022/06/19 00:25:48;;;;;;;;;8.00;7.00;;;;;28.36;42.35;100535.06;5060583;28;57090;-59
2022/06/19 00:28:13;;;;;;;;;10.00;8.67;;;;;28.17;42.11;100534.75;5059969;28;55159;-58
2022/06/19 00:30:39;;;;;;;;;8.67;7.33;;;;;28.00;42.28;100533.31;5060690;28;45602;-58
2022/06/19 00:33:05;;;;;;;;;7.00;7.00;;;;;27.84;42.82;100518.06;5065672;28;45407;-58
2022/06/19 00:35:30;;;;;;;;;8.00;6.67;;;;;27.76;42.54;100505.38;5062139;27;45439;-58
2022/06/19 00:37:56;;;;;;;;;8.00;7.00;;;;;27.58;42.48;100507.75;5050137;28;45990;-58
2022/06/19 00:40:24;;;;;;;;;7.33;7.33;;;;;27.44;42.22;100512.22;5076442;27;45466;-58
2022/06/19 00:42:49;;;;;;;;;8.00;6.33;;;;;27.33;42.23;100503.47;5066303;28;45299;-58
2022/06/19 00:45:41;;;;;;;;;9.33;7.00;;;;;27.18;42.54;100509.00;5074137;27;45546;-59
2022/06/19 00:48:15;;;;;;;;;8.33;6.33;;;;;26.97;42.24;100512.50;5068076;27;46341;-58
2022/06/19 00:50:43;;;;;;;;;7.33;5.67;;;;;26.86;43.55;100510.28;5069350;28;45261;-58
2022/06/19 00:53:12;;;;;;;;;8.67;7.00;;;;;26.83;42.00;100516.97;5075369;28;45385;-58
2022/06/19 00:55:41;;;;;;;;;6.33;6.33;;;;;26.77;42.31;100525.09;5063766;28;45446;-58
2022/06/19 00:58:14;;;;;;;;;4.00;4.00;;;;;26.62;42.20;100530.50;5064167;28;46385;-58
2022/06/19 01:00:40;;;;;;;;;4.67;4.67;;;;;26.55;42.55;100531.25;5058612;28;45351;-58
2022/06/19 01:03:13;;;;;;;;;7.00;5.33;;;;;26.44;42.02;100548.09;5065288;27;45232;-58
2022/06/19 01:05:41;;;;;;;;;8.33;7.67;;;;;26.29;41.75;100552.69;5060413;28;45596;-48
2022/06/19 01:08:06;;;;;;;;;7.00;7.00;;;;;25.97;41.90;100574.59;5081343;27;46362;-48
2022/06/19 01:10:33;;;;;;;;;11.67;9.33;;;;;25.57;42.10;100574.69;5064751;28;69859;-47
2022/06/19 01:12:59;;;;;;;;;10.33;8.00;;;;;25.18;43.08;100574.75;5065133;28;45551;-48
2022/06/19 01:15:25;;;;;;;;;13.33;8.00;;;;;24.80;43.46;100567.25;5065705;27;66633;-49
2022/06/19 01:17:53;;;;;;;;;8.67;8.33;;;;;24.41;44.08;100562.59;5064174;28;45494;-47
2022/06/19 01:20:19;;;;;;;;;8.67;8.67;;;;;24.13;44.72;100554.81;5065626;27;46789;-48
2022/06/19 01:22:55;;;;;;;;;12.00;11.00;;;;;23.83;44.54;100540.03;5065539;28;45562;-46
2022/06/19 01:25:30;;;;;;;;;11.00;9.67;;;;;23.53;45.80;100551.41;5066153;28;45605;-48
2022/06/19 01:30:46;;;;;;;;;13.33;10.33;;;;;23.00;46.36;100556.16;5056374;28;45510;-48
2022/06/19 01:33:15;;;;;;;;;11.00;9.00;;;;;22.82;46.52;100569.81;5051326;28;45429;-46
2022/06/19 01:35:41;;;;;;;;;15.33;11.33;;;;;22.63;47.22;100571.75;5060727;28;45639;-47
2022/06/19 01:38:14;;;;;;;;;11.00;10.00;;;;;22.49;46.51;100575.06;5062488;28;70278;-47
2022/06/19 01:40:42;;;;;;;;;12.00;10.00;;;;;22.45;47.34;100589.94;5062351;28;45681;-47
2022/06/19 01:43:09;;;;;;;;;11.67;11.00;;;;;22.30;47.00;100573.38;5065255;27;45482;-50
2022/06/19 01:45:41;;;;;;;;;12.67;10.33;;;;;22.20;47.27;100580.75;5061983;28;46738;-47
2022/06/19 01:48:07;;;;;;;;;14.33;11.00;;;;;22.19;47.20;100557.38;5061884;28;46259;-47
2022/06/19 01:50:32;;;;;;;;;12.67;10.67;;;;;22.19;47.86;100544.69;5057453;27;59166;-46
2022/06/19 01:53:04;;;;;;;;;9.67;8.67;;;;;22.06;47.58;100530.69;5057632;28;67872;-47
2022/06/19 01:55:31;;;;;;;;;11.00;10.00;;;;;21.90;48.49;100496.25;5060707;27;45504;-47
2022/06/19 01:57:57;;;;;;;;;12.00;10.33;;;;;21.69;47.95;100481.19;5045441;28;71840;-47
2022/06/19 02:00:25;;;;;;;;;14.00;9.33;;;;;21.52;49.19;100501.81;5051888;28;45348;-46
2022/06/19 02:03:00;;;;;;;;;9.33;4.00;;;;;21.41;48.73;100529.97;5056945;28;45431;-47
2022/06/19 02:05:26;;;;;;;;;13.33;11.00;;;;;21.36;48.87;100564.75;5060108;28;45423;-46
2022/06/19 02:07:51;;;;;;;;;14.00;13.00;;;;;21.35;49.42;100581.13;5061523;28;75594;-49
2022/06/19 02:10:16;;;;;;;;;14.00;11.67;;;;;21.31;49.93;100586.88;5064969;28;69709;-46
2022/06/19 02:12:42;;;;;;;;;15.00;11.33;;;;;21.32;49.08;100609.34;5063499;28;45564;-49
2022/06/19 02:15:09;;;;;;;;;12.00;10.33;;;;;21.39;49.03;100605.00;5064142;28;70510;-48
2022/06/19 02:17:39;;;;;;;;;14.33;11.33;;;;;21.41;48.99;100592.19;5065660;28;46320;-51
2022/06/19 02:20:05;;;;;;;;;14.00;12.33;;;;;21.52;49.13;100583.00;5064918;28;45534;-51
2022/06/19 02:22:31;;;;;;;;;13.33;9.00;;;;;21.59;48.86;100605.78;5064911;27;45459;-51
2022/06/19 02:24:56;;;;;;;;;10.67;9.67;;;;;21.64;48.41;100621.53;5064973;28;66796;-51
2022/06/19 02:27:23;;;;;;;;;15.67;11.67;;;;;21.70;48.34;100601.97;5064924;27;45514;-47
2022/06/19 02:29:48;;;;;;;;;8.67;8.33;;;;;21.68;48.74;100595.03;5065266;28;45573;-47
2022/06/19 02:32:22;;;;;;;;;13.67;12.00;;;;;21.66;49.18;100599.75;5062844;27;46730;-47
2022/06/19 02:34:50;;;;;;;;;10.00;10.00;;;;;21.60;48.74;100610.19;5063942;28;45490;-51
2022/06/19 02:37:21;;;;;;;;;9.33;8.00;;;;;21.55;48.37;100617.91;5062925;28;45985;-47
2022/06/19 02:40:00;;;;;;;;;10.00;9.00;;;;;21.59;48.82;100631.97;5064717;28;45452;-50
2022/06/19 02:42:35;;;;;;;;;10.33;9.33;;;;;21.64;48.98;100652.19;5064492;28;45503;-51
2022/06/19 02:45:05;;;;;;;;;13.67;7.33;;;;;21.63;48.54;100647.75;5058552;28;45307;-49
2022/06/19 02:47:33;;;;;;;;;7.67;7.67;;;;;21.66;48.45;100697.19;5062564;27;46236;-51
2022/06/19 02:49:58;;;;;;;;;13.00;9.00;;;;;21.69;48.32;100843.00;5058829;28;45298;-47
2022/06/19 02:52:24;;;;;;;;;7.00;6.00;;;;;21.75;48.42;100901.97;5068302;28;45382;-49
2022/06/19 02:54:49;;;;;;;;;12.33;9.00;;;;;21.76;48.89;100798.97;5049684;28;45578;-48
2022/06/19 02:57:16;;;;;;;;;9.33;9.00;;;;;21.74;49.28;100787.41;5052777;28;75040;-48
2022/06/19 02:59:41;;;;;;;;;6.00;6.00;;;;;21.67;48.26;100836.88;5058077;28;45277;-48
2022/06/19 03:02:07;;;;;;;;;11.00;9.00;;;;;21.71;48.76;100852.69;5059498;28;45586;-47
2022/06/19 03:04:38;;;;;;;;;11.00;9.00;;;;;21.76;48.10;100833.31;5055414;28;45585;-47
2022/06/19 03:07:03;;;;;;;;;13.00;9.00;;;;;21.79;48.52;100836.53;5052576;28;45462;-48
2022/06/19 03:09:29;;;;;;;;;9.33;9.33;;;;;21.76;48.46;100727.75;5054239;28;68770;-47
2022/06/19 03:11:54;;;;;;;;;11.67;7.67;;;;;;;;5057799;28;45542;-50
2022/06/19 03:14:20;;;;;;;;;11.67;10.00;;;;;21.53;48.77;100722.69;5046320;28;45333;-48
2022/06/19 03:16:45;;;;;;;;;8.67;7.00;;;;;21.47;48.37;100782.81;5055185;28;46072;-48
2022/06/19 03:19:11;;;;;;;;;10.33;8.33;;;;;21.45;48.43;100809.19;5058197;28;45401;-47
2022/06/19 03:21:37;;;;;;;;;14.33;6.33;;;;;21.47;48.52;100788.22;5060127;28;45473;-48
2022/06/19 03:24:02;;;;;;;;;13.33;10.67;;;;;21.47;48.82;100799.03;5058511;28;46701;-48
2022/06/19 03:26:28;;;;;;;;;9.33;8.67;;;;;21.45;49.04;100790.25;5062794;28;46021;-49
2022/06/19 03:28:53;;;;;;;;;7.00;7.00;;;;;21.39;48.52;100780.00;5056771;28;45403;-48
2022/06/19 03:31:22;;;;;;;;;15.67;12.67;;;;;21.36;48.86;100773.03;5061456;28;45752;-47
2022/06/19 03:33:47;;;;;;;;;13.67;11.00;;;;;21.22;49.18;100768.94;5051191;28;45463;-47
2022/06/19 03:36:13;;;;;;;;;10.67;10.00;;;;;21.13;48.97;100796.88;5067140;28;45809;-48
2022/06/19 03:38:38;;;;;;;;;18.33;11.00;;;;;21.10;49.51;100798.00;5050700;28;45449;-46
2022/06/19 03:41:03;;;;;;;;;10.00;9.67;;;;;21.02;49.45;100770.84;5065732;28;45677;-46
2022/06/19 03:43:29;;;;;;;;;11.67;11.00;;;;;21.02;49.54;100805.16;5064155;27;45375;-47
2022/06/19 03:45:59;;;;;;;;;17.67;12.00;;;;;21.05;49.45;100794.88;5065941;27;45550;-47
2022/06/19 03:48:24;;;;;;;;;13.00;9.67;;;;;21.05;49.09;100785.94;5057812;28;45394;-46
2022/06/19 03:50:51;;;;;;;;;15.00;10.00;;;;;21.06;49.19;100788.50;5057504;28;45354;-47
2022/06/19 03:53:17;;;;;;;;;14.67;13.00;;;;;21.05;49.35;100765.16;5057745;28;45483;-46
2022/06/19 03:55:42;;;;;;;;;11.67;9.67;;;;;21.05;49.58;100767.84;5058997;28;75502;-46
2022/06/19 03:58:07;;;;;;;;;13.00;10.33;;;;;21.06;49.17;100730.88;5067123;28;45436;-50
2022/06/19 04:00:33;;;;;;;;;9.33;7.67;;;;;21.00;49.61;100718.78;5056670;28;67984;-46
2022/06/19 04:02:58;;;;;;;;;13.33;11.67;;;;;20.91;49.36;100696.19;5079202;27;45343;-47
2022/06/19 04:05:23;;;;;;;;;15.67;12.00;;;;;20.82;49.85;100697.06;5066642;27;69265;-45
2022/06/19 04:07:50;;;;;;;;;10.67;10.67;;;;;20.80;49.50;100735.03;5055382;28;72361;-46
2022/06/19 04:10:17;;;;;;;;;14.33;10.67;;;;;20.86;49.26;100755.25;5060639;28;45316;-45
2022/06/19 04:12:42;;;;;;;;;10.00;10.00;;;;;20.87;49.21;100792.09;5066956;28;45427;-46
2022/06/19 04:15:09;;;;;;;;;11.67;7.67;;;;;20.95;49.70;100816.53;5063179;27;51421;-46
2022/06/19 04:17:35;;;;;;;;;16.67;14.00;;;;;20.94;49.84;100797.78;5069246;28;45343;-46
2022/06/19 04:20:02;;;;;;;;;17.00;12.67;;;;;20.92;49.85;100775.44;5065660;27;45731;-46
2022/06/19 04:22:28;;;;;;;;;13.33;12.00;;;;;20.97;50.37;100721.78;5077215;27;45666;-46
2022/06/19 04:24:53;;;;;;;;;15.33;11.33;;;;;20.97;51.00;100703.69;5059004;27;70479;-49
2022/06/19 04:27:18;;;;;;;;;11.67;9.67;;;;;20.91;50.33;100706.13;5066254;28;62472;-47
2022/06/19 04:29:44;;;;;;;;;13.67;10.00;;;;;20.85;50.97;100661.63;5062100;27;63924;-47
2022/06/19 04:32:09;;;;;;;;;11.00;9.67;;;;;20.74;51.51;100621.28;5064678;28;66211;-46
2022/06/19 04:34:34;;;;;;;;;18.33;13.00;;;;;20.58;52.06;100654.28;5065099;27;46684;-46
2022/06/19 04:37:00;;;;;;;;;12.00;10.00;;;;;20.48;51.64;100732.63;5060983;28;65045;-46
2022/06/19 04:39:25;;;;;;;;;15.67;11.33;;;;;20.48;52.24;100756.94;5059208;28;45602;-48
2022/06/19 04:41:50;;;;;;;;;12.00;10.67;;;;;20.58;51.89;100751.53;5067198;28;60555;-46
2022/06/19 04:44:17;;;;;;;;;13.00;11.33;;;;;20.71;51.79;100800.75;5058822;27;70714;-46
2022/06/19 04:46:43;;;;;;;;;7.67;7.00;;;;;20.83;52.23;100712.28;5062310;28;45652;-47
2022/06/19 04:49:09;;;;;;;;;13.67;8.67;;;;;20.77;51.31;100670.47;5057091;28;45473;-47
2022/06/19 04:51:35;;;;;;;;;11.00;9.00;;;;;20.61;51.90;100670.19;5062327;28;45304;-47
2022/06/19 04:54:00;;;;;;;;;11.33;8.00;;;;;20.53;52.07;100694.38;5059281;28;46707;-46
2022/06/19 04:56:25;;;;;;;;;12.33;9.00;;;;;20.54;51.98;100686.13;5059532;28;68418;-46
2022/06/19 04:58:51;;;;;;;;;8.67;6.67;;;;;20.45;52.09;100685.13;5060691;28;65618;-47
2022/06/19 05:01:27;;;;;;;;;11.00;8.67;;;;;20.35;51.71;100722.13;5068364;28;62474;-46
2022/06/19 05:03:57;;;;;;;;;8.00;8.00;;;;;20.45;52.50;100722.13;5061625;28;46243;-47
2022/06/19 05:06:23;;;;;;;;;7.00;7.00;;;;;20.56;52.00;100661.66;5049291;28;45600;-46
2022/06/19 05:08:49;;;;;;;;;9.00;9.00;;;;;20.45;52.41;100641.06;5062721;28;45437;-46
2022/06/19 05:11:15;;;;;;;;;9.33;8.67;;;;;20.32;53.04;100663.84;5059637;28;45544;-46
2022/06/19 05:13:41;;;;;;;;;9.00;7.67;;;;;20.28;52.92;100680.47;5059106;28;46249;-46
2022/06/19 05:16:12;;;;;;;;;6.67;6.00;;;;;20.26;52.38;100698.66;5058168;28;45546;-46
2022/06/19 05:18:38;;;;;;;;;6.67;6.00;;;;;20.29;52.57;100734.34;5061634;28;45459;-46
2022/06/19 05:21:05;;;;;;;;;8.33;6.00;;;;;20.32;52.65;100725.97;5060457;28;45359;-47
2022/06/19 05:23:35;;;;;;;;;7.33;5.00;;;;;20.41;52.55;100710.72;5059719;28;46061;-46
2022/06/19 05:26:30;;;;;;;;;6.67;6.00;;;;;20.48;52.42;100690.28;5051096;28;45525;-46
2022/06/19 05:28:57;;;;;;;;;6.67;4.67;;;;;20.48;52.09;100649.75;5060012;28;45553;-48
2022/06/19 05:31:23;;;;;;;;;7.67;5.00;;;;;20.39;52.75;100620.91;5056763;28;45331;-47
2022/06/19 05:33:49;;;;;;;;;5.33;4.33;;;;;20.15;52.61;100606.03;5058724;28;46105;-47
2022/06/19 05:36:15;;;;;;;;;5.33;5.00;;;;;20.00;53.41;100585.88;5047166;28;45377;-50
2022/06/19 05:38:41;;;;;;;;;4.00;4.00;;;;;19.87;52.96;100596.06;5064891;27;45690;-51
2022/06/19 05:41:06;;;;;;;;;7.00;4.33;;;;;19.78;54.16;100614.81;5056630;27;45295;-47
2022/06/19 05:43:34;;;;;;;;;4.00;4.00;;;;;19.74;54.48;100632.28;5048927;28;59991;-47
2022/06/19 05:46:14;;;;;;;;;8.33;4.67;;;;;19.78;54.10;100624.75;5069241;28;45309;-49
2022/06/19 05:48:39;;;;;;;;;4.00;4.00;;;;;19.85;53.79;100657.47;5064671;27;45331;-47
2022/06/19 05:51:11;;;;;;;;;6.67;4.67;;;;;19.86;53.31;100667.25;5060033;28;45332;-47
2022/06/19 05:53:41;;;;;;;;;6.00;2.67;;;;;19.91;53.77;100641.53;5049918;28;47269;-47
2022/06/19 05:56:07;;;;;;;;;7.00;4.00;;;;;19.94;52.92;100595.38;5041555;28;45436;-46
2022/06/19 05:58:33;;;;;;;;;3.00;3.00;;;;;19.86;53.68;100575.50;5063531;28;45240;-49
2022/06/19 06:00:59;;;;;;;;;6.33;2.33;;;;;19.72;53.47;100560.56;5058242;27;45363;-47
2022/06/19 06:03:25;;;;;;;;;5.00;4.00;;;;;19.63;53.78;100556.84;5062326;28;46152;-49
2022/06/19 06:05:51;;;;;;;;;6.33;3.00;;;;;19.55;53.78;100562.97;5067576;28;45460;-49
2022/06/19 06:08:17;;;;;;;;;6.33;5.00;;;;;19.45;53.59;100557.56;5067571;27;45438;-49
2022/06/19 06:10:43;;;;;;;;;2.00;2.00;;;;;19.43;54.00;100542.53;5060131;28;45682;-50
2022/06/19 06:13:08;;;;;;;;;7.67;3.67;;;;;19.41;53.98;100477.94;5057410;28;65664;-47
2022/06/19 06:15:34;;;;;;;;;2.00;2.00;;;;;19.31;53.66;100483.31;5059084;28;45530;-47
2022/06/19 06:18:01;;;;;;;;;3.00;2.00;;;;;19.30;53.96;100516.66;5070038;28;45370;-47
2022/06/19 06:20:27;;;;;;;;;4.67;3.00;;;;;19.39;53.80;100539.25;5061155;28;45550;-48
2022/06/19 06:22:52;;;;;;;;;4.00;2.00;;;;;19.53;53.86;100577.56;5058140;28;46097;-49
2022/06/19 06:25:18;;;;;;;;;4.00;3.33;;;;;19.65;53.75;100617.78;5067076;28;45558;-49
2022/06/19 06:27:43;;;;;;;;;4.33;2.00;;;;;19.76;53.43;100630.25;5056497;28;63480;-50
2022/06/19 06:30:11;;;;;;;;;2.00;2.00;;;;;19.77;53.34;100695.91;5058899;28;70125;-48
2022/06/19 06:32:36;;;;;;;;;4.33;4.33;;;;;19.74;53.31;100717.78;5056400;28;45898;-49
2022/06/19 06:35:01;;;;;;;;;3.67;3.00;;;;;19.76;53.58;100707.69;5057274;28;68149;-46
2022/06/19 06:37:27;;;;;;;;;3.00;2.67;;;;;19.81;52.78;100716.22;5056217;28;45453;-48
2022/06/19 06:39:52;;;;;;;;;4.00;2.00;;;;;19.88;52.84;100625.66;5050926;28;66698;-48
2022/06/19 06:42:17;;;;;;;;;3.67;3.00;;;;;19.83;52.85;100792.53;5053912;28;46036;-46
2022/06/19 06:44:43;;;;;;;;;5.00;2.00;;;;;19.81;53.21;100764.78;5053929;28;45371;-46
2022/06/19 06:47:08;;;;;;;;;3.33;1.33;;;;;19.74;53.31;100626.03;5053857;28;69109;-47
2022/06/19 06:49:33;;;;;;;;;4.00;3.00;;;;;19.53;53.88;100635.09;5055252;28;64953;-47
2022/06/19 06:51:59;;;;;;;;;7.00;1.67;;;;;19.37;54.76;100626.66;5056595;28;46140;-45
2022/06/19 06:54:24;;;;;;;;;4.67;2.00;;;;;19.31;54.48;100618.13;5054933;28;73015;-47
2022/06/19 06:56:50;;;;;;;;;5.33;5.00;;;;;19.28;55.07;100629.22;5051745;28;67747;-47
2022/06/19 06:59:15;;;;;;;;;3.67;2.00;;;;;19.29;55.60;100636.28;5049386;28;66081;-46
2022/06/19 07:01:41;;;;;;;;;7.33;5.00;;;;;19.36;54.98;100600.69;5053150;28;46095;-47
2022/06/19 07:04:07;;;;;;;;;4.00;3.00;;;;;19.32;55.27;100570.44;5053766;28;45721;-47
2022/06/19 07:06:32;;;;;;;;;5.33;3.00;;;;;19.24;55.32;100568.47;5053071;28;65285;-52
2022/06/19 07:08:58;;;;;;;;;6.00;2.67;;;;;19.20;55.92;100590.44;5059126;28;45517;-45
2022/06/19 07:11:25;;;;;;;;;4.33;2.00;;;;;19.11;55.85;100649.59;5058107;28;45584;-46
2022/06/19 07:13:51;;;;;;;;;3.67;3.33;;;;;19.08;56.53;100671.41;5069401;28;45532;-46
2022/06/19 07:16:17;;;;;;;;;2.00;2.00;;;;;19.03;55.52;100684.44;5058964;28;45489;-46
2022/06/19 07:18:42;;;;;;;;;2.00;2.00;;;;;19.01;56.45;100703.44;5058774;28;45596;-46
2022/06/19 07:21:10;;;;;;;;;3.00;2.67;;;;;19.07;56.03;100701.19;5057599;28;46257;-46
2022/06/19 07:23:35;;;;;;;;;5.00;2.00;;;;;19.09;56.51;100712.72;5057575;28;45648;-48
2022/06/19 07:26:00;;;;;;;;;3.00;2.33;;;;;19.04;56.05;100637.63;5060049;28;45532;-47
2022/06/19 07:28:26;;;;;;;;;4.00;3.00;;;;;19.01;56.33;100663.00;5048692;28;45579;-47
2022/06/19 07:30:52;;;;;;;;;2.33;2.00;;;;;19.08;56.24;100740.63;5050521;28;46132;-47
2022/06/19 07:33:17;;;;;;;;;1.67;1.67;;;;;19.16;56.56;100797.44;5055606;28;45415;-47
2022/06/19 07:35:42;;;;;;;;;3.67;3.67;;;;;19.23;56.17;100817.50;5041463;28;45307;-45
2022/06/19 07:38:08;;;;;;;;;4.33;3.00;;;;;19.36;55.93;100816.41;5057324;28;64492;-46
2022/06/19 07:40:33;;;;;;;;;3.33;2.33;;;;;19.48;55.25;100831.53;5060102;27;46115;-45
2022/06/19 07:43:00;;;;;;;;;3.00;3.00;;;;;19.53;54.99;100783.44;5048676;27;45439;-46
2022/06/19 07:45:25;;;;;;;;;3.00;3.00;;;;;19.51;54.49;100744.94;5061072;28;45378;-47
2022/06/19 07:50:34;;;;;;;;;4.33;3.00;;;;;19.64;54.48;100804.06;5058085;28;45588;-45
2022/06/19 07:53:00;;;;;;;;;4.33;2.00;;;;;19.76;54.75;100821.00;5057723;28;66491;-48
2022/06/19 07:55:27;;;;;;;;;3.33;3.00;;;;;19.88;54.32;100830.75;5057123;28;60316;-46
2022/06/19 07:57:54;;;;;;;;;4.00;2.00;;;;;20.00;53.77;100864.75;5058007;28;45248;-46
2022/06/19 08:00:22;;;;;;;;;6.33;3.67;;;;;20.10;53.69;100877.41;5056800;28;54739;-46
2022/06/19 08:02:50;;;;;;;;;7.00;4.33;;;;;20.15;53.47;100942.66;5058273;28;45296;-49
2022/06/19 08:05:17;;;;;;;;;4.00;3.67;;;;;20.18;53.21;100982.91;5044725;28;45290;-46
2022/06/19 08:07:42;;;;;;;;;4.67;2.67;;;;;20.24;53.30;100955.34;5052153;28;45225;-47
2022/06/19 08:10:11;;;;;;;;;4.33;3.00;;;;;20.28;53.59;100870.34;5057675;28;46081;-47
2022/06/19 08:12:36;;;;;;;;;7.00;5.00;;;;;20.25;53.59;100810.38;5055828;28;45335;-63
2022/06/19 08:15:02;;;;;;;;;5.00;3.00;;;;;20.32;54.19;100779.97;5058550;28;45379;-63
2022/06/19 08:17:27;;;;;;;;;3.00;3.00;;;;;20.46;53.81;100792.19;5056939;28;45307;-64
2022/06/19 08:19:53;;;;;;;;;4.33;3.00;;;;;20.59;53.95;100732.47;5057347;28;46123;-63
2022/06/19 08:22:18;;;;;;;;;5.33;3.00;;;;;20.97;53.60;100690.19;5056934;28;71714;-58
2022/06/19 08:24:43;;;;;;;;;4.00;3.33;;;;;21.49;52.10;100722.13;5060383;28;66187;-58
2022/06/19 08:27:09;;;;;;;;;2.67;2.33;;;;;21.54;52.35;100710.91;5060708;28;45783;-58
2022/06/19 08:29:35;;;;;;;;;5.33;4.33;;;;;21.41;51.75;100722.03;5061463;28;45252;-57
2022/06/19 08:32:00;;;;;;;;;4.00;3.00;;;;;21.39;52.18;100737.56;5059106;28;45252;-58
2022/06/19 08:34:27;;;;;;;;;4.00;3.00;;;;;21.42;52.42;100731.88;5048943;28;45313;-59
2022/06/19 08:36:53;;;;;;;;;4.00;2.00;;;;;21.51;52.10;100713.91;5060832;28;45445;-58
2022/06/19 08:39:19;;;;;;;;;3.00;3.00;;;;;21.61;51.01;100711.16;5046442;28;46240;-58
2022/06/19 08:41:59;;;;;;;;;5.67;3.00;;;;;21.53;51.00;100719.16;5057244;28;45415;-59
2022/06/19 08:44:37;;;;;;;;;6.33;4.00;;;;;21.28;51.09;100711.56;5055624;28;45530;-59
2022/06/19 08:47:17;;;;;;;;;4.67;4.67;;;;;21.17;50.90;100700.09;5056842;28;45397;-59
2022/06/19 08:50:21;;;;;;;;;8.67;5.00;;;;;21.18;51.98;100685.56;5059410;28;46347;-59
2022/06/19 08:53:29;;;;;;;;;9.33;6.67;;;;;21.31;51.30;100686.06;5058661;28;45579;-59
2022/06/19 08:56:04;;;;;;;;;6.00;3.00;;;;;21.30;51.46;100697.88;5043143;28;45427;-59
2022/06/19 08:59:11;;;;;;;;;4.00;4.00;;;;;21.31;51.41;100700.47;5056308;28;45589;-59
2022/06/19 09:01:51;;;;;;;;;5.00;5.00;;;;;21.45;51.39;100696.38;5057343;28;46350;-59
2022/06/19 09:07:35;;;;;;;;;8.00;5.00;;;;;21.72;50.57;100700.13;5050997;28;45365;-58
2022/06/19 09:10:11;;;;;;;;;5.67;4.00;;;;;21.80;50.51;100700.22;5051673;28;45526;-58
2022/06/19 09:13:02;;;;;;;;;5.67;5.33;;;;;21.90;49.94;100715.53;5057052;28;46486;-59
2022/06/19 09:15:42;;;;;;;;;6.00;4.33;;;;;22.08;50.24;100737.22;5047692;28;45507;-58
2022/06/19 09:18:45;;;;;;;;;5.33;4.00;;;;;22.13;49.42;100745.72;5051248;28;45440;-58
2022/06/19 09:21:50;;;;;;;;;6.67;4.33;;;;;22.15;49.81;100751.88;5053386;28;45356;-59
2022/06/19 09:24:29;;;;;;;;;6.00;5.00;;;;;22.23;49.91;100783.59;5054526;28;46502;-59
2022/06/19 09:26:57;;;;;;;;;5.00;4.00;;;;;22.26;49.43;100797.66;5055416;28;45375;-59
2022/06/19 09:29:47;;;;;;;;;8.33;5.67;;;;;22.31;49.79;100808.88;5059186;28;45503;-59
2022/06/19 09:32:38;;;;;;;;;6.00;4.00;;;;;22.30;49.82;100818.00;5057597;28;45328;-59
2022/06/19 09:35:09;;;;;;;;;6.67;5.33;;;;;22.28;49.72;100811.91;5056651;28;46212;-59
2022/06/19 09:37:39;;;;;;;;;4.00;4.00;;;;;22.33;49.62;100822.28;5055834;28;45355;-57
2022/06/19 09:40:12;;;;;;;;;6.33;6.33;;;;;22.42;49.60;100834.97;5056111;28;45411;-60
2022/06/19 09:42:55;;;;;;;;;7.00;5.67;;;;;22.53;49.19;100833.88;5048640;28;45482;-66
2022/06/19 09:45:25;;;;;;;;;8.00;6.00;;;;;22.64;48.60;100835.50;5056498;28;46372;-65
2022/06/19 09:47:52;;;;;;;;;8.00;7.00;;;;;22.70;48.92;100834.88;5058037;28;45205;-63
2022/06/19 09:50:25;;;;;;;;;8.33;6.67;;;;;22.78;48.81;100851.22;5056410;28;45458;-64
2022/06/19 09:53:09;;;;;;;;;5.33;5.00;;;;;22.89;48.43;100852.00;5057998;28;45303;-64
2022/06/19 09:56:08;;;;;;;;;6.67;5.33;;;;;22.97;48.25;100857.47;5050697;28;46928;-65
2022/06/19 09:58:38;;;;;;;;;8.00;5.33;;;;;23.09;48.14;100841.81;5060452;28;45357;-66
2022/06/19 10:01:04;;;;;;;;;6.00;4.00;;;;;23.24;47.66;100842.13;5057228;28;45454;-65
2022/06/19 10:03:38;;;;;;;;;9.33;7.67;;;;;23.49;47.46;100847.72;5057863;28;45379;-65
2022/06/19 10:06:26;;;;;;;;;12.00;9.33;;;;;23.69;46.81;100841.06;5056533;28;46402;-65
2022/06/19 10:08:59;;;;;;;;;9.33;9.00;;;;;23.89;47.31;100830.78;5056201;28;45438;-65
2022/06/19 10:11:31;;;;;;;;;10.33;8.00;;;;;24.38;46.09;100834.69;5053384;28;45808;-66
2022/06/19 10:14:09;;;;;;;;;10.33;9.00;;;;;25.33;44.21;100822.50;5054783;28;45563;-66
2022/06/19 10:16:45;;;;;;;;;8.00;6.00;;;;;26.28;44.71;100808.03;5052340;28;45449;-63
2022/06/19 10:19:13;;;;;;;;;8.67;8.67;;;;;27.07;43.22;100802.34;5049929;28;45407;-63
2022/06/19 10:22:13;;;;;;;;;10.67;9.00;;;;;27.72;41.76;100805.41;5053749;28;45584;-63
2022/06/19 10:25:09;;;;;;;;;6.67;6.67;;;;;28.28;39.96;100805.88;5058037;28;45494;-62
2022/06/19 10:27:43;;;;;;;;;8.33;5.33;;;;;28.81;37.76;100792.78;5057372;28;46229;-61
2022/06/19 10:30:18;;;;;;;;;7.00;7.00;;;;;29.11;38.04;100776.16;5047948;28;45470;-62
2022/06/19 10:32:52;;;;;;;;;13.00;11.00;;;;;29.48;35.92;100773.25;5043440;28;45423;-63
2022/06/19 10:35:30;;;;;;;;;10.00;10.00;;;;;29.79;36.87;100774.66;5057745;28;45549;-64
2022/06/19 10:38:24;;;;;;;;;11.00;11.00;;;;;30.22;36.95;100768.06;5052488;28;45464;-63
2022/06/19 10:41:05;;;;;;;;;14.00;10.33;;;;;30.77;34.96;100770.69;5062841;28;45542;-63
2022/06/19 10:43:53;;;;;;;;;13.67;13.67;;;;;31.25;35.11;100775.09;5058048;28;45632;-63
2022/06/19 10:46:18;;;;;;;;;11.67;9.67;;;;;31.39;33.88;100786.91;5050465;28;45423;-62
2022/06/19 10:49:05;;;;;;;;;11.33;9.67;;;;;31.35;32.94;100792.00;5054592;28;75300;-61
2022/06/19 10:51:47;;;;;;;;;10.67;9.00;;;;;31.46;33.62;100783.09;5045391;28;45434;-62
2022/06/19 10:54:32;;;;;;;;;9.67;8.00;;;;;31.60;33.41;100791.28;5053559;28;45434;-61
2022/06/19 10:57:04;;;;;;;;;15.00;11.00;;;;;31.53;32.88;100809.72;5056721;28;45433;-58
2022/06/19 10:59:31;;;;;;;;;11.67;11.00;;;;;31.31;33.16;100807.22;5052027;28;46191;-67
2022/06/19 11:05:00;;;;;;;;;12.00;10.00;;;;;30.17;34.24;100802.44;5057239;28;45483;-50
2022/06/19 11:07:26;;;;;;;;;13.00;13.00;;;;;29.72;34.95;100804.78;5053233;28;45486;-46
2022/06/19 11:09:59;;;;;;;;;12.33;10.00;;;;;29.31;35.11;100808.34;5049514;28;46152;-47
2022/06/19 11:12:42;;;;;;;;;10.33;10.00;;;;;28.88;35.94;100818.31;5049464;28;45560;-47
2022/06/19 11:15:14;;;;;;;;;13.33;11.33;;;;;28.63;36.12;100817.84;5054587;28;45464;-50
2022/06/19 11:17:41;;;;;;;;;13.00;11.00;;;;;28.45;36.74;100820.19;5055867;28;45493;-48
2022/06/19 11:20:28;;;;;;;;;11.33;9.67;;;;;28.34;36.56;100827.00;5056665;28;46115;-49
2022/06/19 11:23:20;;;;;;;;;10.67;10.33;;;;;28.10;37.01;100842.72;5052553;28;45228;-48
2022/06/19 11:25:56;;;;;;;;;11.00;11.00;;;;;27.84;37.70;100835.81;5070995;28;45668;-47
2022/06/19 11:28:22;;;;;;;;;10.33;10.00;;;;;27.69;37.66;100815.88;5055245;28;45473;-47
2022/06/19 11:30:50;;;;;;;;;12.67;11.67;;;;;27.48;37.54;100809.31;5057458;28;47143;-52
2022/06/19 11:33:19;;;;;;;;;11.33;9.33;;;;;27.09;38.03;100804.88;5058248;28;45502;-49
2022/06/19 11:35:56;;;;;;;;;10.00;10.00;;;;;26.75;39.23;100806.19;5057034;28;45438;-49
2022/06/19 11:38:43;;;;;;;;;10.33;9.67;;;;;26.70;39.22;100814.03;5056095;28;45274;-51
2022/06/19 11:41:20;;;;;;;;;10.67;10.33;;;;;26.68;38.90;100808.78;5050474;28;45293;-50
2022/06/19 11:43:49;;;;;;;;;9.67;9.00;;;;;26.58;38.62;100787.22;5055242;28;45288;-54